Time;durP1;ratioP1;P1;durP2;ratioP2;P2;SDS_P1;SDS_P2;PMS_P1;PMS_P2;Temp;Humidity;BMP_temperature;BMP_pressure;BME280_temperature;BME280_humidity;BME280_pressure;Samples;Min_cycle;Max_cycle;Signal;HPM_P1;HPM_P2
2022/11/20 00:00:29;;;;;;;27.13;14.40;;;;;;;6.45;78.36;100201.06;5015321;28;20220;-61
2022/11/20 00:02:58;;;;;;;30.03;15.60;;;;;;;6.45;78.45;100198.44;5016321;28;20697;-66
2022/11/20 00:05:26;;;;;;;25.47;13.80;;;;;;;6.38;78.33;100212.13;5013552;28;20632;-61
2022/11/20 00:07:53;;;;;;;25.40;14.43;;;;;;;6.36;78.59;100198.22;5016420;28;20308;-65
2022/11/20 00:10:21;;;;;;;29.10;15.47;;;;;;;6.38;78.58;100196.31;5018648;28;20287;-61
2022/11/20 00:12:49;;;;;;;25.67;14.37;;;;;;;6.39;78.70;100197.16;5024073;28;20307;-61
2022/11/20 00:15:17;;;;;;;27.37;14.50;;;;;;;6.44;78.37;100189.69;5014439;28;20241;-62
2022/11/20 00:17:46;;;;;;;27.13;14.90;;;;;;;6.54;78.08;100197.66;5016147;28;20736;-62
2022/11/20 00:20:15;;;;;;;28.17;14.67;;;;;;;6.62;77.41;100200.47;5021402;28;20240;-61
2022/11/20 00:22:43;;;;;;;26.77;14.67;;;;;;;6.63;76.96;100202.16;5021874;28;20210;-62
2022/11/20 00:25:11;;;;;;;23.87;12.97;;;;;;;6.57;77.09;100213.22;5024575;28;20305;-62
2022/11/20 00:27:39;;;;;;;28.23;15.10;;;;;;;6.56;77.56;100207.09;5022545;28;20285;-62
2022/11/20 00:30:08;;;;;;;28.37;15.17;;;;;;;6.57;78.01;100200.03;5022338;28;20662;-61
2022/11/20 00:32:41;;;;;;;28.07;15.50;;;;;;;6.67;77.63;100203.56;5019687;28;20208;-62
2022/11/20 00:35:09;;;;;;;26.93;14.80;;;;;;;6.62;77.17;100203.13;5024679;28;20296;-61
2022/11/20 00:37:38;;;;;;;28.77;15.73;;;;;;;6.67;77.37;100190.41;5017696;28;20516;-61
2022/11/20 00:40:07;;;;;;;31.60;15.77;;;;;;;6.63;77.40;100210.91;5019024;28;20210;-62
2022/11/20 00:42:35;;;;;;;30.23;16.03;;;;;;;6.63;77.81;100203.00;5020586;28;20233;-63
2022/11/20 00:45:04;;;;;;;28.57;14.80;;;;;;;6.71;77.20;100213.72;5013638;28;20220;-61
2022/11/20 00:47:31;;;;;;;27.70;15.17;;;;;;;6.76;76.52;100206.28;5015965;28;20574;-62
2022/11/20 00:49:59;;;;;;;28.63;14.70;;;;;;;6.72;76.75;100204.00;5016175;28;20236;-61
2022/11/20 00:52:27;;;;;;;26.60;14.57;;;;;;;6.73;76.64;100205.69;5013632;28;20224;-61
2022/11/20 00:54:56;;;;;;;27.00;13.70;;;;;;;6.65;76.55;100206.34;5016150;28;20220;-62
2022/11/20 00:57:24;;;;;;;27.53;14.67;;;;;;;6.62;76.52;100208.38;5023432;28;20205;-61
2022/11/20 00:59:51;;;;;;;28.80;14.77;;;;;;;6.70;76.46;100198.88;5013813;28;20212;-61
2022/11/20 01:02:19;;;;;;;30.73;15.70;;;;;;;6.76;76.00;100194.91;5012426;28;20241;-62
2022/11/20 01:04:47;;;;;;;29.63;16.23;;;;;;;6.79;75.89;100205.16;5017606;28;20653;-61
2022/11/20 01:07:15;;;;;;;25.30;13.50;;;;;;;6.73;75.83;100200.41;5018857;28;20219;-62
2022/11/20 01:09:43;;;;;;;24.80;14.03;;;;;;;6.68;75.84;100192.91;5018316;28;20233;-61
2022/11/20 01:12:12;;;;;;;26.30;13.73;;;;;;;6.59;77.02;100180.53;5026498;28;20241;-62
2022/11/20 01:14:40;;;;;;;23.97;13.93;;;;;;;6.60;76.61;100178.69;5014421;28;20520;-62
2022/11/20 01:17:07;;;;;;;24.47;13.40;;;;;;;6.69;76.88;100172.63;5025119;28;20220;-63
2022/11/20 01:19:35;;;;;;;24.50;13.77;;;;;;;6.55;76.56;100168.56;5016247;28;20430;-61
2022/11/20 01:22:03;;;;;;;24.77;13.33;;;;;;;6.34;78.37;100173.81;5033984;28;20219;-62
2022/11/20 01:24:31;;;;;;;32.27;14.90;;;;;;;6.27;78.97;100180.56;5023596;28;20216;-61
2022/11/20 01:26:58;;;;;;;27.77;14.17;;;;;;;6.35;79.64;100183.38;5027240;28;20213;-61
2022/11/20 01:29:27;;;;;;;25.37;13.70;;;;;;;6.36;80.08;100182.44;5022577;28;20228;-61
2022/11/20 01:31:55;;;;;;;26.70;14.07;;;;;;;6.34;80.51;100178.25;5023705;28;20842;-61
2022/11/20 01:34:24;;;;;;;25.93;13.30;;;;;;;6.36;80.33;100179.78;5032968;28;20205;-61
2022/11/20 01:36:53;;;;;;;26.03;14.20;;;;;;;6.46;79.48;100179.88;5014514;28;20268;-63
2022/11/20 01:39:23;;;;;;;26.70;13.97;;;;;;;6.52;78.95;100178.50;5020035;28;20212;-61
2022/11/20 01:44:52;;;;;;;25.00;13.53;;;;;;;6.38;79.88;100177.88;5025899;28;20211;-61
2022/11/20 01:47:26;;;;;;;26.90;13.43;;;;;;;6.43;80.38;100180.09;5021474;28;20217;-63
2022/11/20 01:49:59;;;;;;;25.70;13.33;;;;;;;6.43;80.56;100186.22;5015248;28;20232;-62
2022/11/20 01:52:32;;;;;;;25.77;13.63;;;;;;;6.38;80.81;100190.22;5025769;28;20657;-61
2022/11/20 01:55:04;;;;;;;27.63;14.73;;;;;;;6.35;81.20;100191.28;5016453;28;20209;-62
2022/11/20 01:57:35;;;;;;;26.03;14.10;;;;;;;6.38;80.93;100185.78;5020702;28;20210;-61
2022/11/20 02:00:07;;;;;;;25.10;12.87;;;;;;;6.36;81.20;100182.44;5023896;28;20560;-61
2022/11/20 02:02:36;;;;;;;22.20;12.70;;;;;;;6.34;80.52;100179.09;5023521;28;20213;-63
2022/11/20 02:05:12;;;;;;;22.77;12.00;;;;;;;6.29;80.31;100176.00;5020083;28;20205;-61
2022/11/20 02:07:41;;;;;;;19.03;10.77;;;;;;;6.47;79.56;100167.53;5016410;28;20216;-61
2022/11/20 02:10:09;;;;;;;21.83;12.40;;;;;;;6.43;78.50;100166.94;5022478;28;20232;-60
2022/11/20 02:15:23;;;;;;;20.90;11.20;;;;;;;6.31;79.67;100179.34;5022976;28;20229;-60
2022/11/20 02:17:57;;;;;;;21.63;10.97;;;;;;;6.38;79.98;100177.03;5019016;28;20666;-61
2022/11/20 02:20:24;;;;;;;21.50;12.13;;;;;;;6.45;79.73;100169.44;5018645;28;20839;-60
2022/11/20 02:22:58;;;;;;;19.53;11.27;;;;;;;6.51;79.64;100164.50;5016059;28;20205;-63
2022/11/20 02:25:29;;;;;;;22.77;11.47;;;;;;;6.51;78.95;100172.41;5017738;28;20197;-61
2022/11/20 02:27:57;;;;;;;21.40;11.30;;;;;;;6.45;80.12;100170.28;5019891;28;20584;-62
2022/11/20 02:30:25;;;;;;;21.27;11.60;;;;;;;6.46;79.92;100164.06;5021871;28;20235;-65
2022/11/20 02:32:53;;;;;;;20.83;11.50;;;;;;;6.46;79.64;100171.13;5014525;28;20542;-62
2022/11/20 02:35:45;;;;;;;24.37;12.23;;;;;;;6.39;79.96;100171.66;5016706;28;20304;-63
2022/11/20 02:38:14;;;;;;;19.40;10.90;;;;;;;6.36;80.70;100164.00;5020840;28;20209;-62
2022/11/20 02:40:43;;;;;;;22.30;11.83;;;;;;;6.54;79.83;100152.88;5019980;28;20197;-62
2022/11/20 02:43:11;;;;;;;22.83;12.03;;;;;;;6.66;79.04;100152.69;5015973;28;20213;-61
2022/11/20 02:45:39;;;;;;;21.37;11.80;;;;;;;6.71;78.26;100155.75;5025937;28;20243;-62
2022/11/20 02:48:08;;;;;;;19.90;11.03;;;;;;;6.83;77.41;100153.88;5018381;28;20213;-62
2022/11/20 02:50:38;;;;;;;21.60;12.00;;;;;;;6.77;77.13;100149.13;5018222;28;20234;-66
2022/11/20 02:53:06;;;;;;;22.83;11.53;;;;;;;6.81;77.30;100145.25;5012539;28;20653;-62
2022/11/20 02:55:34;;;;;;;20.37;11.03;;;;;;;6.87;76.92;100147.34;5015037;28;20206;-64
2022/11/20 02:58:03;;;;;;;22.23;11.47;;;;;;;6.94;76.58;100148.50;5017857;28;20224;-62
2022/11/20 03:00:31;;;;;;;21.13;10.83;;;;;;;6.80;77.17;100149.69;5026814;28;20259;-63
2022/11/20 03:02:59;;;;;;;19.73;10.97;;;;;;;6.70;77.61;100153.22;5017745;28;20689;-61
2022/11/20 03:05:27;;;;;;;18.77;11.07;;;;;;;6.60;78.33;100152.34;5016238;28;20213;-64
2022/11/20 03:07:54;;;;;;;19.03;10.37;;;;;;;6.61;77.81;100151.38;5022533;28;20228;-62
2022/11/20 03:10:22;;;;;;;20.03;11.33;;;;;;;6.76;77.51;100142.19;5023383;28;20236;-60
2022/11/20 03:12:55;;;;;;;19.60;10.20;;;;;;;6.86;76.48;100150.94;5023207;28;20301;-61
2022/11/20 03:15:24;;;;;;;18.70;9.93;;;;;;;6.78;76.88;100150.78;5015980;28;20223;-62
2022/11/20 03:17:54;;;;;;;19.23;10.33;;;;;;;6.65;77.58;100161.53;5027808;28;20232;-61
2022/11/20 03:20:22;;;;;;;19.53;11.10;;;;;;;6.66;78.03;100163.22;5018041;28;20906;-60
2022/11/20 03:22:50;;;;;;;18.40;10.87;;;;;;;6.55;78.55;100157.19;5018107;28;20748;-64
2022/11/20 03:25:18;;;;;;;18.00;10.50;;;;;;;6.46;78.96;100160.59;5017950;28;20202;-60
2022/11/20 03:27:46;;;;;;;20.07;11.13;;;;;;;6.46;79.56;100161.44;5022543;28;20216;-62
2022/11/20 03:30:14;;;;;;;19.77;11.03;;;;;;;6.41;79.51;100153.94;5015315;28;20232;-63
2022/11/20 03:32:44;;;;;;;20.10;11.27;;;;;;;6.51;79.56;100156.59;5020239;28;20215;-61
2022/11/20 03:35:12;;;;;;;19.37;10.13;;;;;;;6.54;79.32;100156.34;5019146;28;20211;-62
2022/11/20 03:37:39;;;;;;;18.10;10.33;;;;;;;6.47;78.92;100152.56;5010933;28;20216;-61
2022/11/20 03:40:08;;;;;;;19.63;11.37;;;;;;;6.55;79.15;100160.66;5020430;28;20209;-61
2022/11/20 03:42:47;;;;;;;20.13;11.60;;;;;;;6.62;79.04;100155.69;5015098;28;20205;-63
2022/11/20 03:45:17;;;;;;;20.47;10.77;;;;;;;6.56;79.03;100145.69;5024506;28;20217;-63
2022/11/20 03:47:47;;;;;;;20.07;10.57;;;;;;;6.51;79.13;100148.69;5013966;28;20206;-64
2022/11/20 03:50:15;;;;;;;21.97;11.57;;;;;;;6.57;79.04;100157.91;5029332;28;20263;-63
2022/11/20 03:52:43;;;;;;;22.27;11.43;;;;;;;6.58;79.40;100154.28;5011621;28;20217;-62
2022/11/20 03:55:12;;;;;;;22.43;12.07;;;;;;;6.56;80.09;100148.31;5019330;28;20273;-63
2022/11/20 03:57:40;;;;;;;20.30;12.10;;;;;;;6.60;79.72;100154.97;5016199;28;20272;-61
2022/11/20 04:00:09;;;;;;;22.53;11.07;;;;;;;6.66;79.62;100146.56;5027737;28;20723;-65
2022/11/20 04:02:37;;;;;;;23.93;11.77;;;;;;;6.77;79.40;100146.50;5015412;28;20217;-63
2022/11/20 04:05:07;;;;;;;21.57;11.33;;;;;;;6.75;79.68;100137.88;5020672;28;20344;-62
2022/11/20 04:07:35;;;;;;;21.40;11.50;;;;;;;6.81;78.65;100134.72;5018547;28;20649;-63
2022/11/20 04:10:03;;;;;;;21.40;11.87;;;;;;;6.84;79.10;100123.91;5020587;28;20354;-62
2022/11/20 04:12:33;;;;;;;21.80;11.53;;;;;;;6.79;78.60;100129.56;5018977;28;20321;-62
2022/11/20 04:15:01;;;;;;;22.43;11.93;;;;;;;6.86;78.66;100129.06;5015137;28;20624;-61
2022/11/20 04:17:29;;;;;;;23.17;12.40;;;;;;;6.97;77.41;100123.66;5020709;28;20220;-62
2022/11/20 04:19:57;;;;;;;23.37;12.07;;;;;;;6.98;76.92;100120.06;5020732;28;20227;-61
2022/11/20 04:22:26;;;;;;;23.50;11.80;;;;;;;6.84;77.39;100123.91;5012853;28;20671;-61
2022/11/20 04:24:53;;;;;;;24.33;12.33;;;;;;;6.70;78.42;100126.88;5018294;28;20216;-63
2022/11/20 04:27:21;;;;;;;20.53;11.03;;;;;;;6.64;79.36;100127.41;5021365;28;20204;-60
2022/11/20 04:29:49;;;;;;;21.27;10.97;;;;;;;6.62;79.41;100124.06;5018089;28;20213;-61
2022/11/20 04:32:17;;;;;;;21.87;11.67;;;;;;;6.59;79.29;100129.63;5018712;28;20244;-62
2022/11/20 04:34:44;;;;;;;19.77;11.03;;;;;;;6.59;78.82;100124.34;5014229;28;20213;-64
2022/11/20 04:37:12;;;;;;;18.77;10.17;;;;;;;6.69;78.77;100117.31;5015172;28;20214;-63
2022/11/20 04:39:41;;;;;;;22.33;11.73;;;;;;;6.75;78.05;100125.53;5018397;28;20662;-62
2022/11/20 04:44:54;;;;;;;18.60;10.70;;;;;;;6.70;77.45;100111.91;5012849;28;20217;-64
2022/11/20 04:47:22;;;;;;;22.00;11.90;;;;;;;6.71;77.74;100123.28;5018002;28;20205;-63
2022/11/20 04:49:50;;;;;;;24.03;12.23;;;;;;;6.71;78.04;100123.28;5020914;28;20220;-62
2022/11/20 04:52:18;;;;;;;21.83;11.53;;;;;;;6.67;78.60;100111.34;5020451;28;20228;-63
2022/11/20 04:54:47;;;;;;;19.30;11.10;;;;;;;6.73;78.13;100105.56;5015407;28;20212;-62
2022/11/20 04:57:16;;;;;;;25.50;11.87;;;;;;;6.69;78.80;100107.59;5013011;28;20219;-63
2022/11/20 04:59:44;;;;;;;19.73;10.80;;;;;;;6.69;78.67;100109.41;5020642;28;20208;-64
2022/11/20 05:02:12;;;;;;;19.70;10.73;;;;;;;6.63;78.60;100123.09;5020265;28;20292;-63
2022/11/20 05:04:40;;;;;;;24.30;11.93;;;;;;;6.62;79.67;100114.38;5013965;28;20292;-62
2022/11/20 05:07:07;;;;;;;20.23;10.67;;;;;;;6.57;79.63;100110.47;5018007;28;20210;-66
2022/11/20 05:09:35;;;;;;;22.27;12.30;;;;;;;6.49;79.63;100102.38;5019370;28;20233;-64
2022/11/20 05:12:05;;;;;;;21.47;11.23;;;;;;;6.47;79.78;100105.16;5014116;28;20233;-62
2022/11/20 05:14:33;;;;;;;19.70;11.20;;;;;;;6.60;79.51;100104.91;5021360;28;20201;-62
2022/11/20 05:17:01;;;;;;;20.90;10.60;;;;;;;6.58;79.52;100097.19;5016393;28;20304;-61
2022/11/20 05:19:28;;;;;;;22.50;11.57;;;;;;;6.67;79.32;100095.56;5020300;28;20209;-61
2022/11/20 05:21:57;;;;;;;19.33;10.63;;;;;;;6.80;78.98;100096.16;5017372;28;20206;-61
2022/11/20 05:24:24;;;;;;;22.37;11.67;;;;;;;6.80;77.90;100102.25;5020881;28;20209;-62
2022/11/20 05:26:52;;;;;;;21.17;11.93;;;;;;;6.86;78.19;100111.41;5019254;28;20655;-63
2022/11/20 05:29:21;;;;;;;20.17;11.00;;;;;;;6.90;78.38;100099.66;5019113;28;20213;-62
2022/11/20 05:31:49;;;;;;;21.37;11.50;;;;;;;6.93;78.39;100099.41;5020414;28;20248;-62
2022/11/20 05:34:17;;;;;;;23.10;10.90;;;;;;;6.80;79.17;100104.06;5013060;28;20556;-61
2022/11/20 05:36:45;;;;;;;22.40;11.50;;;;;;;6.71;79.44;100107.47;5017213;28;20214;-62
2022/11/20 05:39:15;;;;;;;20.37;10.87;;;;;;;6.69;79.85;100114.66;5012633;28;20221;-63
2022/11/20 05:41:42;;;;;;;17.80;10.07;;;;;;;6.63;80.18;100105.50;5021606;28;20295;-64
2022/11/20 05:44:11;;;;;;;18.97;10.33;;;;;;;6.60;80.58;100092.59;5019064;28;20619;-60
2022/11/20 05:46:40;;;;;;;19.53;11.10;;;;;;;6.73;79.70;100087.09;5017630;28;20221;-62
2022/11/20 05:49:08;;;;;;;21.73;11.03;;;;;;;6.77;79.77;100075.34;5017020;28;20218;-62
2022/11/20 05:51:35;;;;;;;21.23;12.30;;;;;;;6.75;79.58;100101.00;5015043;28;20239;-61
2022/11/20 05:54:03;;;;;;;23.37;13.07;;;;;;;6.69;80.28;100104.13;5016342;28;20232;-62
2022/11/20 05:56:31;;;;;;;23.90;11.27;;;;;;;6.64;81.15;100108.97;5023492;28;20209;-63
2022/11/20 05:58:59;;;;;;;22.97;11.93;;;;;;;6.63;81.64;100100.22;5022758;28;20206;-61
2022/11/20 06:01:26;;;;;;;24.77;12.60;;;;;;;6.77;81.13;100104.34;5018833;28;20221;-61
2022/11/20 06:03:56;;;;;;;23.20;12.47;;;;;;;6.78;80.25;100098.91;5018259;28;20367;-63
2022/11/20 06:06:25;;;;;;;25.23;12.77;;;;;;;6.70;80.00;100097.91;5015240;28;20304;-62
2022/11/20 06:08:52;;;;;;;21.33;11.83;;;;;;;6.72;80.30;100085.44;5019291;28;20212;-61
2022/11/20 06:11:20;;;;;;;23.10;12.47;;;;;;;6.75;79.71;100093.91;5029419;28;20710;-62
2022/11/20 06:13:49;;;;;;;22.77;12.47;;;;;;;6.66;80.17;100091.25;5025513;28;20216;-63
2022/11/20 06:16:20;;;;;;;22.63;12.27;;;;;;;6.67;79.91;100079.75;5013504;28;20257;-61
2022/11/20 06:18:48;;;;;;;22.60;12.10;;;;;;;6.71;79.86;100096.94;5013651;28;20719;-63
2022/11/20 06:21:19;;;;;;;24.03;13.07;;;;;;;6.78;79.70;100092.78;5023303;28;20205;-63
2022/11/20 06:23:47;;;;;;;23.87;12.67;;;;;;;6.84;79.65;100094.91;5014683;28;20209;-62
2022/11/20 06:26:17;;;;;;;25.57;13.07;;;;;;;6.89;79.69;100090.06;5019951;28;20293;-63
2022/11/20 06:28:45;;;;;;;23.63;12.77;;;;;;;6.97;79.43;100084.97;5028543;28;20205;-61
2022/11/20 06:31:15;;;;;;;23.03;12.30;;;;;;;6.84;79.64;100094.91;5017363;28;20307;-62
2022/11/20 06:33:43;;;;;;;20.93;11.87;;;;;;;6.81;79.72;100097.81;5022940;28;20271;-62
2022/11/20 06:36:13;;;;;;;22.83;12.67;;;;;;;6.69;80.13;100093.59;5019865;28;20221;-61
2022/11/20 06:38:42;;;;;;;22.40;11.97;;;;;;;6.77;79.94;100091.16;5017790;28;20213;-63
2022/11/20 06:41:13;;;;;;;20.83;11.60;;;;;;;6.73;80.23;100097.66;5021343;28;20219;-61
2022/11/20 06:43:41;;;;;;;22.63;11.73;;;;;;;6.68;80.67;100084.06;5026780;28;20215;-61
2022/11/20 06:46:10;;;;;;;21.40;11.47;;;;;;;6.74;81.03;100091.41;5021392;28;20698;-60
2022/11/20 06:48:38;;;;;;;23.33;11.67;;;;;;;6.75;80.44;100093.09;5024193;28;20232;-61
2022/11/20 06:51:06;;;;;;;20.93;12.07;;;;;;;6.83;79.76;100095.88;5016440;28;20210;-61
2022/11/20 06:53:35;;;;;;;21.27;11.47;;;;;;;6.87;79.27;100093.81;5027990;28;20240;-61
2022/11/20 06:56:04;;;;;;;24.43;12.30;;;;;;;6.94;78.61;100089.69;5023261;28;20218;-62
2022/11/20 06:58:34;;;;;;;24.70;11.93;;;;;;;6.98;77.90;100094.53;5018217;28;20563;-61
2022/11/20 07:01:03;;;;;;;21.77;12.00;;;;;;;6.92;78.00;100094.25;5020541;28;20330;-62
2022/11/20 07:03:31;;;;;;;25.07;12.13;;;;;;;6.92;78.25;100095.09;5017859;28;20210;-63
2022/11/20 07:06:01;;;;;;;22.77;12.30;;;;;;;6.83;78.94;100095.88;5019697;28;20216;-62
2022/11/20 07:08:30;;;;;;;21.13;11.87;;;;;;;6.89;79.00;100095.34;5016055;28;20558;-61
2022/11/20 07:10:59;;;;;;;22.37;11.67;;;;;;;7.03;78.57;100100.25;5016358;28;20237;-63
2022/11/20 07:13:29;;;;;;;22.00;11.73;;;;;;;7.13;77.82;100102.91;5012434;28;20251;-64
2022/11/20 07:16:00;;;;;;;22.53;12.37;;;;;;;7.01;78.18;100114.53;5019365;28;20213;-61
2022/11/20 07:18:28;;;;;;;24.97;12.83;;;;;;;6.95;79.09;100104.53;5017339;28;20214;-63
2022/11/20 07:20:55;;;;;;;22.77;12.73;;;;;;;6.95;79.20;100113.25;5019874;28;20212;-62
2022/11/20 07:23:23;;;;;;;24.20;13.07;;;;;;;6.86;79.99;100110.59;5015028;28;20658;-61
2022/11/20 07:25:51;;;;;;;23.93;13.17;;;;;;;6.90;80.32;100107.56;5020330;28;20277;-61
2022/11/20 07:28:19;;;;;;;21.73;11.87;;;;;;;6.93;79.97;100107.31;5020387;28;20288;-63
2022/11/20 07:30:52;;;;;;;25.47;13.43;;;;;;;6.92;80.24;100110.91;5013125;28;20591;-63
2022/11/20 07:33:20;;;;;;;25.57;13.77;;;;;;;6.84;80.47;100107.25;5018556;28;20304;-65
2022/11/20 07:35:48;;;;;;;26.27;13.97;;;;;;;6.82;80.87;100114.47;5017403;28;20206;-63
2022/11/20 07:38:15;;;;;;;24.23;12.83;;;;;;;6.87;80.96;100120.16;5018517;28;20218;-61
2022/11/20 07:40:43;;;;;;;26.40;13.67;;;;;;;6.84;81.13;100118.66;5017774;28;20552;-61
2022/11/20 07:43:11;;;;;;;23.83;12.07;;;;;;;6.93;80.98;100122.28;5023055;28;20219;-62
2022/11/20 07:45:39;;;;;;;24.60;12.33;;;;;;;6.98;80.45;100126.19;5025483;28;20240;-62
2022/11/20 07:48:08;;;;;;;23.47;12.93;;;;;;;6.96;80.39;100128.09;5016492;28;20664;-62
2022/11/20 07:50:36;;;;;;;26.50;13.50;;;;;;;7.01;80.42;100125.09;5016850;28;20204;-63
2022/11/20 07:53:05;;;;;;;23.83;12.70;;;;;;;7.07;79.74;100130.66;5020332;28;20868;-62
2022/11/20 07:55:33;;;;;;;27.33;13.30;;;;;;;7.01;79.27;100135.63;5019291;28;20217;-65
2022/11/20 07:58:05;;;;;;;26.30;13.63;;;;;;;6.99;79.48;100141.03;5010891;28;20706;-62
2022/11/20 08:00:33;;;;;;;24.20;12.23;;;;;;;7.06;79.47;100144.78;5026177;28;20209;-61
2022/11/20 08:03:04;;;;;;;22.47;11.70;;;;;;;7.09;78.93;100148.97;5015402;28;20206;-61
2022/11/20 08:05:40;;;;;;;22.33;11.83;;;;;;;7.13;78.92;100145.09;5018854;28;20205;-61
2022/11/20 08:08:08;;;;;;;22.87;11.87;;;;;;;7.13;79.20;100145.94;5012521;28;20300;-65
2022/11/20 08:10:38;;;;;;;24.77;13.20;;;;;;;7.05;80.25;100143.13;5017529;28;20238;-63
2022/11/20 08:15:54;;;;;;;24.20;12.23;;;;;;;7.04;80.32;100141.44;5017755;28;20209;-63
2022/11/20 08:18:21;;;;;;;23.10;12.03;;;;;;;7.04;80.35;100141.44;5014110;28;20209;-61
2022/11/20 08:21:04;;;;;;;22.03;12.07;;;;;;;7.05;80.61;100148.41;5015495;28;20205;-61
2022/11/20 08:23:32;;;;;;;21.70;12.33;;;;;;;7.10;80.11;100154.13;5014242;28;20214;-61
2022/11/20 08:25:59;;;;;;;19.83;11.27;;;;;;;7.15;79.56;100144.00;5028979;28;20225;-64
2022/11/20 08:28:27;;;;;;;20.07;11.37;;;;;;;7.26;78.90;100150.13;5020293;28;20209;-61
2022/11/20 08:31:01;;;;;;;19.07;11.47;;;;;;;7.28;78.28;100159.59;5018892;28;20683;-60
2022/11/20 08:33:29;;;;;;;19.97;10.97;;;;;;;7.33;77.98;100156.53;5020460;28;20235;-63
2022/11/20 08:36:01;;;;;;;21.23;11.93;;;;;;;7.38;77.39;100155.19;5023099;28;20220;-66
2022/11/20 08:38:30;;;;;;;21.03;10.87;;;;;;;7.29;77.62;100163.06;5040934;28;20204;-66
2022/11/20 08:43:43;;;;;;;21.83;11.77;;;;;;;7.37;78.45;100169.34;5030367;28;20202;-65
2022/11/20 08:46:11;;;;;;;20.27;11.53;;;;;;;7.35;78.58;100170.44;5028344;28;20217;-66
2022/11/20 08:48:39;;;;;;;21.97;11.50;;;;;;;7.32;78.46;100166.25;5033823;28;20216;-66
2022/11/20 08:51:08;;;;;;;24.53;13.07;;;;;;;7.46;77.92;100173.81;5027318;28;20262;-68
2022/11/20 08:53:35;;;;;;;23.90;13.47;;;;;;;7.41;77.85;100169.88;5028860;28;20325;-65
2022/11/20 08:56:03;;;;;;;22.30;12.40;;;;;;;7.33;78.40;100177.63;5032974;28;20209;-64
2022/11/20 08:58:31;;;;;;;24.13;13.03;;;;;;;7.36;78.92;100183.50;5027709;28;20206;-66
2022/11/20 09:01:19;;;;;;;24.60;12.50;;;;;;;7.47;78.41;100183.38;5026060;28;20213;-66
2022/11/20 09:03:48;;;;;;;22.00;12.17;;;;;;;7.45;77.91;100185.31;5031322;28;20658;-67
2022/11/20 09:06:17;;;;;;;23.67;12.53;;;;;;;7.45;78.12;100181.84;5035320;28;20213;-67
2022/11/20 09:08:45;;;;;;;23.23;12.43;;;;;;;7.49;78.33;100172.69;5036535;28;20206;-68
2022/11/20 09:11:13;;;;;;;21.90;12.33;;;;;;;7.53;78.05;100182.84;5029358;28;20233;-66
2022/11/20 09:13:41;;;;;;;22.33;12.03;;;;;;;7.50;77.90;100174.34;5023616;28;20257;-66
2022/11/20 09:16:10;;;;;;;22.43;12.27;;;;;;;7.42;78.47;100188.22;5027446;28;20206;-67
2022/11/20 09:18:38;;;;;;;24.00;13.47;;;;;;;7.39;79.10;100177.09;5023518;28;20234;-66
2022/11/20 09:21:10;;;;;;;22.37;12.00;;;;;;;7.46;78.88;100175.59;5028761;28;20224;-65
2022/11/20 09:23:39;;;;;;;22.73;11.80;;;;;;;7.57;77.84;100181.59;5028192;28;20210;-67
2022/11/20 09:26:11;;;;;;;28.37;13.13;;;;;;;7.64;77.05;100175.78;5029401;28;20246;-68
2022/11/20 09:28:39;;;;;;;21.90;12.00;;;;;;;7.61;77.06;100184.78;5034932;28;21024;-65
2022/11/20 09:31:08;;;;;;;22.40;11.60;;;;;;;7.58;77.58;100187.69;5036086;28;20236;-66
2022/11/20 09:33:36;;;;;;;22.17;13.07;;;;;;;7.70;77.25;100188.41;5038279;28;20244;-66
2022/11/20 09:36:05;;;;;;;23.63;13.03;;;;;;;7.61;77.11;100187.44;5039488;28;20248;-68
2022/11/20 09:38:33;;;;;;;20.63;12.10;;;;;;;7.50;77.45;100195.44;5034321;28;20269;-67
2022/11/20 09:41:05;;;;;;;24.50;12.30;;;;;;;7.40;78.17;100194.59;5032608;28;20224;-67
2022/11/20 09:43:50;;;;;;;24.33;12.67;;;;;;;7.36;78.40;100199.31;5037253;28;20270;-65
2022/11/20 09:46:29;;;;;;;23.47;13.27;;;;;;;7.43;78.50;100195.16;5040804;28;20209;-65
2022/11/20 09:49:13;;;;;;;25.83;13.40;;;;;;;7.56;78.12;100187.81;5035405;28;20211;-65
2022/11/20 09:51:50;;;;;;;26.03;12.63;;;;;;;7.52;77.70;100193.53;5033927;28;20218;-66
2022/11/20 09:54:20;;;;;;;25.87;13.60;;;;;;;7.52;78.12;100186.44;5038634;28;20236;-66
2022/11/20 09:56:54;;;;;;;22.03;11.97;;;;;;;7.54;78.08;100196.88;5032287;28;20315;-67
2022/11/20 09:59:34;;;;;;;26.30;12.93;;;;;;;7.62;77.89;100175.06;5031397;28;20248;-67
2022/11/20 10:02:15;;;;;;;25.37;13.93;;;;;;;7.73;78.21;100177.59;5033718;28;20382;-66
2022/11/20 10:04:52;;;;;;;26.00;14.00;;;;;;;7.80;77.65;100187.47;5041742;28;20654;-68
2022/11/20 10:07:25;;;;;;;26.57;14.23;;;;;;;7.88;76.40;100176.22;5036610;28;20244;-66
2022/11/20 10:10:01;;;;;;;24.97;14.23;;;;;;;7.90;76.06;100175.13;5030064;28;20222;-66
2022/11/20 10:12:48;;;;;;;24.73;13.73;;;;;;;7.92;76.26;100178.44;5038517;28;20260;-65
2022/11/20 10:15:30;;;;;;;26.27;14.03;;;;;;;7.85;76.32;100171.22;5035386;28;20241;-64
2022/11/20 10:18:10;;;;;;;21.93;12.57;;;;;;;7.83;76.91;100171.34;5031410;28;20691;-67
2022/11/20 10:20:47;;;;;;;24.27;13.43;;;;;;;7.78;78.01;100163.00;5034388;28;20208;-65
2022/11/20 10:23:33;;;;;;;27.47;14.03;;;;;;;7.86;78.09;100170.25;5037994;28;20226;-66
2022/11/20 10:26:04;;;;;;;26.70;13.93;;;;;;;7.84;78.38;100161.63;5034470;28;20218;-64
2022/11/20 10:28:49;;;;;;;26.90;14.07;;;;;;;8.00;77.92;100166.38;5039604;28;20226;-67
2022/11/20 10:31:32;;;;;;;24.23;13.50;;;;;;;8.05;77.63;100169.41;5051773;28;20180;-66
2022/11/20 10:34:04;;;;;;;28.00;15.37;;;;;;;8.07;77.51;100162.19;5035582;28;20281;-65
2022/11/20 10:36:44;;;;;;;25.57;13.87;;;;;;;8.05;77.86;100158.84;5038286;28;20228;-66
2022/11/20 10:39:19;;;;;;;28.20;14.03;;;;;;;8.13;77.88;100158.97;5043751;28;20209;-67
2022/11/20 10:41:52;;;;;;;31.57;15.80;;;;;;;8.11;78.13;100160.94;5035233;28;20235;-65
2022/11/20 10:47:15;;;;;;;27.73;14.93;;;;;;;8.10;78.73;100146.06;5035247;28;20304;-66
2022/11/20 10:49:46;;;;;;;28.57;15.87;;;;;;;8.20;78.62;100153.00;5034966;28;20219;-66
2022/11/20 10:52:34;;;;;;;28.37;16.47;;;;;;;8.27;78.03;100151.44;5036285;28;20226;-67
2022/11/20 10:55:09;;;;;;;30.63;15.50;;;;;;;8.30;77.37;100150.34;5030228;28;20218;-66
2022/11/20 10:57:52;;;;;;;27.80;15.53;;;;;;;8.28;77.40;100147.84;5035900;28;20218;-67
2022/11/20 11:00:21;;;;;;;27.47;15.13;;;;;;;8.26;77.68;100146.34;5040898;28;20231;-66
2022/11/20 11:02:51;;;;;;;31.37;16.70;;;;;;;8.12;77.23;100150.22;5032164;28;20233;-67
2022/11/20 11:05:28;;;;;;;32.70;17.77;;;;;;;8.11;77.86;100147.72;5036985;28;20294;-66
2022/11/20 11:07:57;;;;;;;26.17;14.80;;;;;;;8.11;78.26;100148.56;5039808;28;20216;-68
2022/11/20 11:10:31;;;;;;;26.97;14.97;;;;;;;8.09;77.76;100144.41;5032196;28;20235;-67
2022/11/20 11:12:59;;;;;;;31.53;16.40;;;;;;;8.01;78.91;100131.03;5034537;28;20242;-67
2022/11/20 11:15:31;;;;;;;26.67;15.67;;;;;;;8.07;79.14;100128.69;5033532;28;20796;-65
2022/11/20 11:17:58;;;;;;;30.57;17.17;;;;;;;8.19;79.87;100129.34;5034013;28;20215;-67
2022/11/20 11:20:27;;;;;;;29.67;16.67;;;;;;;8.21;80.62;100116.84;5032978;28;20481;-67
2022/11/20 11:22:57;;;;;;;34.00;17.00;;;;;;;8.47;79.79;100107.38;5037275;28;20230;-65
2022/11/20 11:25:29;;;;;;;26.13;15.53;;;;;;;8.67;79.12;100102.88;5049932;28;20218;-66
2022/11/20 11:28:00;;;;;;;28.50;15.83;;;;;;;8.86;77.96;100099.31;5039364;28;20215;-65
2022/11/20 11:30:31;;;;;;;30.13;16.60;;;;;;;9.06;77.43;100106.16;5034805;28;20209;-66
2022/11/20 11:33:07;;;;;;;27.13;16.40;;;;;;;9.41;76.51;100111.53;5039152;28;20208;-67
2022/11/20 11:35:45;;;;;;;26.03;15.37;;;;;;;9.40;75.11;100111.69;5040655;28;20263;-67
2022/11/20 11:38:31;;;;;;;26.53;15.77;;;;;;;9.26;75.62;100102.44;5037273;28;20299;-66
2022/11/20 11:40:59;;;;;;;27.93;16.47;;;;;;;9.33;76.73;100100.03;5032777;28;20208;-66
2022/11/20 11:46:44;;;;;;;29.40;16.63;;;;;;;9.46;75.43;100094.38;5030991;28;20212;-65
2022/11/20 11:49:19;;;;;;;28.70;16.83;;;;;;;9.30;75.99;100095.03;5019796;28;20243;-65